Newburg, Wisconsin
Current Conditions -  °F | °C
As of 8:35 AM on Saturday 22 Nov 2014 (Local Time) from KETB Reporting Station
Haze Haze  
Wind Chill: 27°   Ceiling: 400
Heat Index: 36°   Visibility: 2.5mi
Dew Point: 32°   Wind: 13mph
Humidity: 87%   Direction: 220°SW
Pressure: 29.92"   Gusts: NA
Location:  43.43°N, 88.05°W
Report Text: KETB 221435Z AUTO 22011KT 2 1/2SM BR OVC004 02/00 A2992 RMK AO2
Loading
Personal Weather Stations






























Interactive Weather Map New forecast layout! Learn more

10-Day Weather Forecast

Advertisements
Track Severe Weather on mobile